virtualACA

Welcome To Calgary International Airport CYYC

Hub Roster

Pilot Domicile Rank
Ethan Title - ACA1641CanadaChief Pilot
Graham Dawson - ACA2317CanadaChief Pilot
Rashaido Brown - ACA3288JamaicaFirst Officer

Current Vatsim Weather


CYYC 041400Z 34004KT 40SM FEW100 14/09 A3013 RMK AC2 SLP206 DENSITY ALT 4100FT
Calgary International Airport